Home > Products > Valid Products > TAF

000
FTPA31 PHFO 020300 AAA
TAFHNL
TAF AMD
PHNL 020305Z 0203/0306 03017G25KT P6SM FEW030 SCT050
     FM020600 05011KT P6SM FEW030 SCT050
     FM022000 06016G24KT P6SM FEW030 SCT050
     FM030500 05010KT P6SM FEW030 SCT050=



000
FTPA31 PHFO 020300 AAA
TAFHNL
TAF AMD
PHNL 020305Z 0203/0306 03017G25KT P6SM FEW030 SCT050
     FM020600 05011KT P6SM FEW030 SCT050
     FM022000 06016G24KT P6SM FEW030 SCT050
     FM030500 05010KT P6SM FEW030 SCT050=



000
FTPA31 PHFO 012300
TAFHNL
TAF
PHNL 012334Z 0200/0306 06017G25KT P6SM FEW030 SCT050
     FM020600 05011KT P6SM FEW030 SCT050
     FM022000 06016G24KT P6SM FEW030 SCT050
     FM030500 05010KT P6SM FEW030 SCT050=



000
FTPA31 PHFO 012300
TAFHNL
TAF
PHNL 012334Z 0200/0306 06017G25KT P6SM FEW030 SCT050
     FM020600 05011KT P6SM FEW030 SCT050
     FM022000 06016G24KT P6SM FEW030 SCT050
     FM030500 05010KT P6SM FEW030 SCT050=



000
FTPA31 PHFO 012300
TAFHNL
TAF
PHNL 012334Z 0200/0306 06017G25KT P6SM FEW030 SCT050
     FM020600 05011KT P6SM FEW030 SCT050
     FM022000 06016G24KT P6SM FEW030 SCT050
     FM030500 05010KT P6SM FEW030 SCT050=



000
FTPA31 PHFO 012300
TAFHNL
TAF
PHNL 012334Z 0200/0306 06017G25KT P6SM FEW030 SCT050
     FM020600 05011KT P6SM FEW030 SCT050
     FM022000 06016G24KT P6SM FEW030 SCT050
     FM030500 05010KT P6SM FEW030 SCT050=



000
FTPA31 PHFO 012100 AAA
TAFHNL
TAF AMD
PHNL 012108Z 0121/0224 06017G25KT P6SM FEW030 SCT050
     FM020600 05011KT P6SM VCSH FEW030 SCT050
     FM022000 06016G24KT P6SM FEW030 SCT050=



000
FTPA31 PHFO 012100 AAA
TAFHNL
TAF AMD
PHNL 012108Z 0121/0224 06017G25KT P6SM FEW030 SCT050
     FM020600 05011KT P6SM VCSH FEW030 SCT050
     FM022000 06016G24KT P6SM FEW030 SCT050=



000
FTPA31 PHFO 011700
TAFHNL
TAF
PHNL 011734Z 0118/0224 06010KT P6SM VCSH FEW025 SCT035 SCT050
     FM012000 06017G25KT P6SM FEW030 SCT050
     FM020600 05011KT P6SM VCSH FEW030 SCT050
     FM022000 06016G24KT P6SM FEW030 SCT050=



000
FTPA31 PHFO 011500 AAA
TAFHNL
TAF AMD
PHNL 011505Z 0115/0218 06010KT P6SM VCSH FEW025 SCT035 SCT050
     FM012000 06017G25KT P6SM FEW030 SCT050
     FM020600 05011KT P6SM VCSH FEW030 SCT050=



000
FTPA31 PHFO 011500 AAA
TAFHNL
TAF AMD
PHNL 011505Z 0115/0218 06010KT P6SM VCSH FEW025 SCT035 SCT050
     FM012000 06017G25KT P6SM FEW030 SCT050
     FM020600 05011KT P6SM VCSH FEW030 SCT050=



000
FTPA31 PHFO 011100
TAFHNL
TAF
PHNL 011125Z 0112/0218 06010KT P6SM VCSH FEW030 SCT050
     FM012000 06017G25KT P6SM FEW030 SCT050
     FM020600 05011KT P6SM VCSH FEW030 SCT050=



000
FTPA31 PHFO 010900 AAA
TAFHNL
TAF AMD
PHNL 010906Z 0109/0212 06010KT P6SM VCSH FEW030 SCT050
     FM012000 06017G25KT P6SM FEW030 SCT050
     FM020600 05011KT P6SM FEW030 SCT050=



000
FTPA31 PHFO 010900 AAA
TAFHNL
TAF AMD
PHNL 010906Z 0109/0212 06010KT P6SM VCSH FEW030 SCT050
     FM012000 06017G25KT P6SM FEW030 SCT050
     FM020600 05011KT P6SM FEW030 SCT050=



000
FTPA31 PHFO 010900 AAA
TAFHNL
TAF AMD
PHNL 010906Z 0109/0212 06010KT P6SM VCSH FEW030 SCT050
     FM012000 06017G25KT P6SM FEW030 SCT050
     FM020600 05011KT P6SM FEW030 SCT050=



000
FTPA31 PHFO 010500
TAFHNL
TAF
PHNL 010529Z 0106/0212 06010KT P6SM FEW030 SCT050
     FM012000 06017G25KT P6SM FEW030 SCT050
     FM020600 05011KT P6SM FEW030 SCT050=



000
FTPA31 PHFO 010200 AAA
TAFHNL
TAF AMD
PHNL 010255Z 0103/0206 06015G24KT P6SM FEW030 SCT050
     FM010600 06011G18KT P6SM FEW030 SCT050
     FM011200 06010KT P6SM FEW030 SCT050
     FM012000 06015G23KT P6SM FEW030 SCT050
     FM020500 05011KT P6SM FEW030 SCT050=



000
FTPA31 PHFO 010200 AAA
TAFHNL
TAF AMD
PHNL 010255Z 0103/0206 06015G24KT P6SM FEW030 SCT050
     FM010600 06011G18KT P6SM FEW030 SCT050
     FM011200 06010KT P6SM FEW030 SCT050
     FM012000 06015G23KT P6SM FEW030 SCT050
     FM020500 05011KT P6SM FEW030 SCT050=



000
FTPA31 PHFO 010200 AAA
TAFHNL
TAF AMD
PHNL 010255Z 0103/0206 06015G24KT P6SM FEW030 SCT050
     FM010600 06011G18KT P6SM FEW030 SCT050
     FM011200 06010KT P6SM FEW030 SCT050
     FM012000 06015G23KT P6SM FEW030 SCT050
     FM020500 05011KT P6SM FEW030 SCT050=



000
FTPA31 PHFO 010200 AAA
TAFHNL
TAF AMD
PHNL 010255Z 0103/0206 06015G24KT P6SM FEW030 SCT050
     FM010600 06011G18KT P6SM FEW030 SCT050
     FM011200 06010KT P6SM FEW030 SCT050
     FM012000 06015G23KT P6SM FEW030 SCT050
     FM020500 05011KT P6SM FEW030 SCT050=



000
FTPA31 PHFO 312300
TAFHNL
TAF
PHNL 312320Z 0100/0206 06015G26KT P6SM FEW030 SCT050
     FM010600 06011G18KT P6SM FEW030 SCT050
     FM011200 06010KT P6SM FEW030 SCT050
     FM012000 06015G23KT P6SM FEW030 SCT050
     FM020500 05011KT P6SM FEW030 SCT050=



000
FTPA31 PHFO 312300
TAFHNL
TAF
PHNL 312320Z 0100/0206 06015G26KT P6SM FEW030 SCT050
     FM010600 06011G18KT P6SM FEW030 SCT050
     FM011200 06010KT P6SM FEW030 SCT050
     FM012000 06015G23KT P6SM FEW030 SCT050
     FM020500 05011KT P6SM FEW030 SCT050=



000
FTPA31 PHFO 312000 AAA
TAFHNL
TAF AMD
PHNL 312059Z 3121/0124 06015G23KT P6SM FEW030 BKN050
     FM010600 06011G18KT P6SM FEW030 SCT050
     FM011200 06010KT P6SM FEW030 SCT050
     FM012000 06015G23KT P6SM FEW030 SCT050=



000
FTPA31 PHFO 311700
TAFHNL
TAF
PHNL 311727Z 3118/0124 06012KT P6SM FEW025 BKN050
     FM311900 06015G23KT P6SM FEW030 SCT050
     FM010600 06011G18KT P6SM FEW030 SCT050
     FM011200 06010KT P6SM FEW030 SCT050
     FM012000 06015G23KT P6SM FEW030 SCT050=



000
FTPA31 PHFO 311700
TAFHNL
TAF
PHNL 311727Z 3118/0124 06012KT P6SM FEW025 BKN050
     FM311900 06015G23KT P6SM FEW030 SCT050
     FM010600 06011G18KT P6SM FEW030 SCT050
     FM011200 06010KT P6SM FEW030 SCT050
     FM012000 06015G23KT P6SM FEW030 SCT050=



000
FTPA31 PHFO 311700
TAFHNL
TAF
PHNL 311727Z 3118/0124 06012KT P6SM FEW025 BKN050
     FM311900 06015G23KT P6SM FEW030 SCT050
     FM010600 06011G18KT P6SM FEW030 SCT050
     FM011200 06010KT P6SM FEW030 SCT050
     FM012000 06015G23KT P6SM FEW030 SCT050=



000
FTPA31 PHFO 311700
TAFHNL
TAF
PHNL 311727Z 3118/0124 06012KT P6SM FEW025 BKN050
     FM311900 06015G23KT P6SM FEW030 SCT050
     FM010600 06011G18KT P6SM FEW030 SCT050
     FM011200 06010KT P6SM FEW030 SCT050
     FM012000 06015G23KT P6SM FEW030 SCT050=



000
FTPA31 PHFO 311500 AAA
TAFHNL
TAF AMD
PHNL 311506Z 3115/0118 06011KT P6SM FEW025 BKN050
     FM311900 06015G23KT P6SM FEW030 SCT050
     FM010600 06011G18KT P6SM FEW030 SCT050=



000
FTPA31 PHFO 311500 AAA
TAFHNL
TAF AMD
PHNL 311506Z 3115/0118 06011KT P6SM FEW025 BKN050
     FM311900 06015G23KT P6SM FEW030 SCT050
     FM010600 06011G18KT P6SM FEW030 SCT050=



000
FTPA31 PHFO 311100
TAFHNL
TAF
PHNL 311126Z 3112/0118 06011KT P6SM FEW035 SCT050
     FM311900 06015G23KT P6SM FEW030 SCT050
     FM010600 06011G18KT P6SM FEW030 SCT050=



000
FTPA31 PHFO 311100
TAFHNL
TAF
PHNL 311126Z 3112/0118 06011KT P6SM FEW035 SCT050
     FM311900 06015G23KT P6SM FEW030 SCT050
     FM010600 06011G18KT P6SM FEW030 SCT050=



000
FTPA31 PHFO 311100
TAFHNL
TAF
PHNL 311126Z 3112/0118 06011KT P6SM FEW035 SCT050
     FM311900 06015G23KT P6SM FEW030 SCT050
     FM010600 06011G18KT P6SM FEW030 SCT050=



000
FTPA31 PHFO 311100
TAFHNL
TAF
PHNL 311126Z 3112/0118 06011KT P6SM FEW035 SCT050
     FM311900 06015G23KT P6SM FEW030 SCT050
     FM010600 06011G18KT P6SM FEW030 SCT050=



000
FTPA31 PHFO 310900 AAA
TAFHNL
TAF AMD
PHNL 310906Z 3109/0112 06011KT P6SM FEW035 SCT060
     FM311900 06015G23KT P6SM FEW030 SCT050
     FM010500 06011KT P6SM FEW030 SCT050=



000
FTPA31 PHFO 310900 AAA
TAFHNL
TAF AMD
PHNL 310906Z 3109/0112 06011KT P6SM FEW035 SCT060
     FM311900 06015G23KT P6SM FEW030 SCT050
     FM010500 06011KT P6SM FEW030 SCT050=



000
FTPA31 PHFO 310500
TAFHNL
TAF
PHNL 310525Z 3106/0112 06011KT P6SM FEW035 SCT060
     FM311900 06015G23KT P6SM FEW030 SCT050
     FM010500 06011KT P6SM FEW030 SCT050=



000
FTPA31 PHFO 310500
TAFHNL
TAF
PHNL 310525Z 3106/0112 06011KT P6SM FEW035 SCT060
     FM311900 06015G23KT P6SM FEW030 SCT050
     FM010500 06011KT P6SM FEW030 SCT050=



000
FTPA31 PHFO 310500
TAFHNL
TAF
PHNL 310525Z 3106/0112 06011KT P6SM FEW035 SCT060
     FM311900 06015G23KT P6SM FEW030 SCT050
     FM010500 06011KT P6SM FEW030 SCT050=



000
FTPA31 PHFO 310500
TAFHNL
TAF
PHNL 310525Z 3106/0112 06011KT P6SM FEW035 SCT060
     FM311900 06015G23KT P6SM FEW030 SCT050
     FM010500 06011KT P6SM FEW030 SCT050=



000
FTPA31 PHFO 310200 AAA
TAFHNL
TAF AMD
PHNL 310259Z 3103/0106 05014G22KT P6SM SCT030 SCT050
     FM310800 05010KT P6SM SCT030 SCT050
     FM311900 06016G24KT P6SM SCT030 SCT050
     FM010500 06011KT P6SM SCT030 SCT045=



000
FTPA31 PHFO 310200 AAA
TAFHNL
TAF AMD
PHNL 310259Z 3103/0106 05014G22KT P6SM SCT030 SCT050
     FM310800 05010KT P6SM SCT030 SCT050
     FM311900 06016G24KT P6SM SCT030 SCT050
     FM010500 06011KT P6SM SCT030 SCT045=



000
FTPA31 PHFO 302300
TAFHNL
TAF
PHNL 302320Z 3100/0106 05014G22KT P6SM SCT030 SCT045
     FM310800 05010KT P6SM SCT030 SCT045
     FM311900 06016G24KT P6SM SCT030 SCT050
     FM010500 06011KT P6SM SCT030 SCT045=



000
FTPA31 PHFO 302300
TAFHNL
TAF
PHNL 302320Z 3100/0106 05014G22KT P6SM SCT030 SCT045
     FM310800 05010KT P6SM SCT030 SCT045
     FM311900 06016G24KT P6SM SCT030 SCT050
     FM010500 06011KT P6SM SCT030 SCT045=



000
FTPA31 PHFO 302000 AAA
TAFHNL
TAF AMD
PHNL 302058Z 3021/3124 06014G22KT P6SM SCT030 SCT050
     FM310800 06010KT P6SM SCT030 SCT050
     FM311900 06016G24KT P6SM SCT030 SCT050=



000
FTPA31 PHFO 302000 AAA
TAFHNL
TAF AMD
PHNL 302058Z 3021/3124 06014G22KT P6SM SCT030 SCT050
     FM310800 06010KT P6SM SCT030 SCT050
     FM311900 06016G24KT P6SM SCT030 SCT050=



000
FTPA31 PHFO 302000 AAA
TAFHNL
TAF AMD
PHNL 302058Z 3021/3124 06014G22KT P6SM SCT030 SCT050
     FM310800 06010KT P6SM SCT030 SCT050
     FM311900 06016G24KT P6SM SCT030 SCT050=



000
FTPA31 PHFO 301700
TAFHNL
TAF
PHNL 301730Z 3018/3124 06011KT P6SM FEW025 SCT045
     FM302000 06014G22KT P6SM SCT030 SCT050
     FM310800 06010KT P6SM SCT030 SCT050
     FM311900 06016G24KT P6SM SCT030 SCT050=



000
FTPA31 PHFO 301700
TAFHNL
TAF
PHNL 301730Z 3018/3124 06011KT P6SM FEW025 SCT045
     FM302000 06014G22KT P6SM SCT030 SCT050
     FM310800 06010KT P6SM SCT030 SCT050
     FM311900 06016G24KT P6SM SCT030 SCT050=



000
FTPA31 PHFO 301700
TAFHNL
TAF
PHNL 301730Z 3018/3124 06011KT P6SM FEW025 SCT045
     FM302000 06014G22KT P6SM SCT030 SCT050
     FM310800 06010KT P6SM SCT030 SCT050
     FM311900 06016G24KT P6SM SCT030 SCT050=



000
FTPA31 PHFO 301700
TAFHNL
TAF
PHNL 301730Z 3018/3124 06011KT P6SM FEW025 SCT045
     FM302000 06014G22KT P6SM SCT030 SCT050
     FM310800 06010KT P6SM SCT030 SCT050
     FM311900 06016G24KT P6SM SCT030 SCT050=



000
FTPA31 PHFO 301500 AAB
TAFHNL
TAF AMD
PHNL 301503Z 3015/3118 06012KT P6SM SCT030
     FM302000 06012G22KT P6SM SCT030 BKN050
     FM311000 06008KT P6SM SCT030 BKN050=



000
FTPA31 PHFO 301500 AAB
TAFHNL
TAF AMD
PHNL 301503Z 3015/3118 06012KT P6SM SCT030
     FM302000 06012G22KT P6SM SCT030 BKN050
     FM311000 06008KT P6SM SCT030 BKN050=



000
FTPA31 PHFO 301200 AAA
TAFHNL
TAF AMD
PHNL 301257Z 3013/3118 06012KT P6SM SCT030
     FM302000 06012G22KT P6SM SCT030 BKN050
     FM311000 06008KT P6SM SCT030 BKN050=



000
FTPA31 PHFO 301200 AAA
TAFHNL
TAF AMD
PHNL 301257Z 3013/3118 06012KT P6SM SCT030
     FM302000 06012G22KT P6SM SCT030 BKN050
     FM311000 06008KT P6SM SCT030 BKN050=



000
FTPA31 PHFO 301200 AAA
TAFHNL
TAF AMD
PHNL 301257Z 3013/3118 06012KT P6SM SCT030
     FM302000 06012G22KT P6SM SCT030 BKN050
     FM311000 06008KT P6SM SCT030 BKN050=



000
FTPA31 PHFO 301200 AAA
TAFHNL
TAF AMD
PHNL 301257Z 3013/3118 06012KT P6SM SCT030
     FM302000 06012G22KT P6SM SCT030 BKN050
     FM311000 06008KT P6SM SCT030 BKN050=



000
FTPA31 PHFO 301100
TAFHNL
TAF
PHNL 301120Z 3012/3118 06008KT P6SM SCT030
     FM302000 06012G22KT P6SM SCT030 BKN050
     FM311000 06008KT P6SM SCT030 BKN050=



000
FTPA31 PHFO 301100
TAFHNL
TAF
PHNL 301120Z 3012/3118 06008KT P6SM SCT030
     FM302000 06012G22KT P6SM SCT030 BKN050
     FM311000 06008KT P6SM SCT030 BKN050=



000
FTPA31 PHFO 300900 AAA
TAFHNL
TAF AMD
PHNL 300905Z 3009/3112 06012G22KT P6SM SCT035 BKN050
     FM301000 06010KT P6SM SCT030 BKN050
     FM302000 06012G22KT P6SM SCT030 BKN050
     FM310800 06010KT P6SM SCT030 BKN050=



000
FTPA31 PHFO 300900 AAA
TAFHNL
TAF AMD
PHNL 300905Z 3009/3112 06012G22KT P6SM SCT035 BKN050
     FM301000 06010KT P6SM SCT030 BKN050
     FM302000 06012G22KT P6SM SCT030 BKN050
     FM310800 06010KT P6SM SCT030 BKN050=



000
FTPA31 PHFO 300500
TAFHNL
TAF
PHNL 300520Z 3006/3112 06012G22KT P6SM SCT035 BKN050
     FM300800 06010KT P6SM SCT030 BKN050
     FM302000 06012G22KT P6SM SCT030 BKN050
     FM310800 06010KT P6SM SCT030 BKN050=



000
FTPA31 PHFO 300500
TAFHNL
TAF
PHNL 300520Z 3006/3112 06012G22KT P6SM SCT035 BKN050
     FM300800 06010KT P6SM SCT030 BKN050
     FM302000 06012G22KT P6SM SCT030 BKN050
     FM310800 06010KT P6SM SCT030 BKN050=



000
FTPA31 PHFO 300500
TAFHNL
TAF
PHNL 300520Z 3006/3112 06012G22KT P6SM SCT035 BKN050
     FM300800 06010KT P6SM SCT030 BKN050
     FM302000 06012G22KT P6SM SCT030 BKN050
     FM310800 06010KT P6SM SCT030 BKN050=



000
FTPA31 PHFO 300500
TAFHNL
TAF
PHNL 300520Z 3006/3112 06012G22KT P6SM SCT035 BKN050
     FM300800 06010KT P6SM SCT030 BKN050
     FM302000 06012G22KT P6SM SCT030 BKN050
     FM310800 06010KT P6SM SCT030 BKN050=



    US Dept of Commerce
    National Oceanic and Atmospheric Administration
    National Weather Service
    1325 East West Highway
    Silver Spring, MD 20910
    Page Author: NWS Internet Services Team
Disclaimer
Information Quality
Credits
Glossary
Privacy Policy
Freedom of Information Act (FOIA)
About Us
Career Opportunities